Time;durP1;ratioP1;P1;durP2;ratioP2;P2;SDS_P1;SDS_P2;PMS_P1;PMS_P2;Temp;Humidity;BMP_temperature;BMP_pressure;BME280_temperature;BME280_humidity;BME280_pressure;Samples;Min_cycle;Max_cycle;Signal;HPM_P1;HPM_P2
2023/05/19 00:01:06;;;;;;;0.40;0.40;;;12.00;99.90;;;;;;4396223;32;21073;-66
2023/05/19 00:03:32;;;;;;;3.20;0.50;;;11.90;99.90;;;;;;4396633;32;20093;-66
2023/05/19 00:06:01;;;;;;;1.35;0.70;;;12.00;99.90;;;;;;4397373;32;20216;-67
2023/05/19 00:08:30;;;;;;;2.28;0.57;;;11.90;99.90;;;;;;4397630;32;20090;-66
2023/05/19 00:10:56;;;;;;;3.62;0.93;;;11.90;99.90;;;;;;4398028;32;20075;-66
2023/05/19 00:13:22;;;;;;;1.85;0.40;;;11.90;99.90;;;;;;4399544;32;20660;-67
2023/05/19 00:15:49;;;;;;;0.40;0.40;;;11.90;99.90;;;;;;4397656;32;20605;-66
2023/05/19 00:18:15;;;;;;;0.40;0.40;;;11.90;99.90;;;;;;4399072;32;20439;-67
2023/05/19 00:20:41;;;;;;;0.37;0.37;;;11.80;99.90;;;;;;4400125;32;20065;-67
2023/05/19 00:23:07;;;;;;;0.80;0.45;;;11.80;99.90;;;;;;4398494;32;20094;-66
2023/05/19 00:25:32;;;;;;;0.52;0.50;;;11.80;99.90;;;;;;4400384;32;20082;-67
2023/05/19 00:27:58;;;;;;;0.43;0.40;;;11.70;99.90;;;;;;4396555;32;20137;-66
2023/05/19 00:30:24;;;;;;;7.20;1.33;;;11.60;99.90;;;;;;4398696;32;20069;-66
2023/05/19 00:32:50;;;;;;;0.52;0.52;;;11.60;99.90;;;;;;4397211;32;20152;-66
2023/05/19 00:35:15;;;;;;;0.95;0.95;;;11.60;99.90;;;;;;4398542;32;20496;-66
2023/05/19 00:37:41;;;;;;;0.50;0.50;;;11.70;99.90;;;;;;4398066;32;20094;-66
2023/05/19 00:40:07;;;;;;;0.40;0.40;;;11.60;99.90;;;;;;4397458;32;20431;-67
2023/05/19 00:42:34;;;;;;;1.52;0.37;;;11.60;99.90;;;;;;4399458;32;20093;-66
2023/05/19 00:45:00;;;;;;;0.60;0.60;;;11.60;99.90;;;;;;4395591;32;20061;-66
2023/05/19 00:47:25;;;;;;;0.50;0.50;;;11.50;99.90;;;;;;4382094;32;20081;-67
2023/05/19 00:49:51;;;;;;;1.27;0.50;;;11.50;99.90;;;;;;4383273;32;20336;-66
2023/05/19 00:52:16;;;;;;;0.30;0.30;;;11.50;99.90;;;;;;4394054;32;20069;-67
2023/05/19 00:54:43;;;;;;;0.40;0.40;;;11.50;99.90;;;;;;4397555;32;20484;-66
2023/05/19 00:57:08;;;;;;;0.85;0.55;;;11.50;99.90;;;;;;4396999;32;20081;-66
2023/05/19 00:59:34;;;;;;;0.30;0.30;;;11.40;99.90;;;;;;4400382;32;20090;-66
2023/05/19 01:02:01;;;;;;;0.30;0.30;;;11.30;99.90;;;;;;4397325;32;20532;-66
2023/05/19 01:04:28;;;;;;;1.92;0.47;;;11.30;99.90;;;;;;4394791;32;20136;-66
2023/05/19 01:06:55;;;;;;;0.77;0.77;;;11.30;99.90;;;;;;4399486;32;20081;-67
2023/05/19 01:09:21;;;;;;;0.40;0.40;;;11.30;99.90;;;;;;4398968;32;20145;-67
2023/05/19 01:11:48;;;;;;;3.70;0.90;;;11.30;99.90;;;;;;4385731;32;20081;-66
2023/05/19 01:14:15;;;;;;;0.90;0.52;;;11.30;99.90;;;;;;4395481;32;20089;-67
2023/05/19 01:16:49;;;;;;;0.35;0.35;;;11.30;99.90;;;;;;4396677;32;20098;-66
2023/05/19 01:19:46;;;;;;;0.30;0.30;;;11.20;99.90;;;;;;4383913;32;20546;-66
2023/05/19 01:22:42;;;;;;;0.40;0.40;;;11.30;99.90;;;;;;4387218;32;20111;-66
2023/05/19 01:25:36;;;;;;;0.45;0.45;;;11.20;99.90;;;;;;4388780;32;20468;-66
2023/05/19 01:28:20;;;;;;;0.30;0.30;;;11.20;99.90;;;;;;4385492;32;20628;-66
2023/05/19 01:30:50;;;;;;;5.47;1.37;;;11.10;99.90;;;;;;4397205;32;20106;-66
2023/05/19 01:33:17;;;;;;;1.07;0.50;;;11.20;99.90;;;;;;4396253;32;20093;-66
2023/05/19 01:35:44;;;;;;;1.73;1.20;;;11.10;99.90;;;;;;4397020;32;20082;-66
2023/05/19 01:38:11;;;;;;;0.47;0.47;;;11.20;99.90;;;;;;4396895;32;20089;-66
2023/05/19 01:40:39;;;;;;;0.75;0.50;;;11.20;99.90;;;;;;4397892;32;20057;-67
2023/05/19 01:43:07;;;;;;;0.30;0.30;;;11.10;99.90;;;;;;4398942;32;20138;-66
2023/05/19 01:45:33;;;;;;;0.45;0.45;;;11.00;99.90;;;;;;4396365;32;20090;-66
2023/05/19 01:48:01;;;;;;;0.30;0.30;;;11.00;99.90;;;;;;4397045;32;20065;-66
2023/05/19 01:50:27;;;;;;;0.40;0.40;;;11.00;99.90;;;;;;4383692;32;20277;-66
2023/05/19 01:52:53;;;;;;;3.50;1.17;;;11.00;99.90;;;;;;4382865;32;20211;-66
2023/05/19 01:55:21;;;;;;;1.02;0.93;;;11.00;99.90;;;;;;4396675;32;20206;-67
2023/05/19 01:58:00;;;;;;;0.73;0.73;;;11.00;99.90;;;;;;4395188;32;20129;-66
2023/05/19 02:01:00;;;;;;;0.50;0.50;;;10.90;99.90;;;;;;4394805;32;20081;-66
2023/05/19 02:03:42;;;;;;;1.20;0.83;;;11.00;99.90;;;;;;4385807;32;20069;-67
2023/05/19 02:06:30;;;;;;;17.75;1.02;;;10.90;99.90;;;;;;4399377;32;20137;-66
2023/05/19 02:09:02;;;;;;;0.37;0.37;;;10.70;99.90;;;;;;4386080;32;20090;-66
2023/05/19 02:11:37;;;;;;;0.25;0.25;;;10.60;99.90;;;;;;4381972;32;20609;-66
2023/05/19 02:14:12;;;;;;;0.30;0.30;;;10.60;99.90;;;;;;4385767;32;20070;-66
2023/05/19 02:16:38;;;;;;;0.30;0.30;;;10.70;99.90;;;;;;4383648;32;20715;-66
2023/05/19 02:19:04;;;;;;;2.00;0.40;;;10.60;99.90;;;;;;4397065;32;20090;-66
2023/05/19 02:21:29;;;;;;;0.75;0.75;;;10.70;99.90;;;;;;4399389;32;20073;-67
2023/05/19 02:23:55;;;;;;;5.05;0.50;;;10.70;99.90;;;;;;4398587;32;20577;-66
2023/05/19 02:26:21;;;;;;;14.65;0.55;;;10.60;99.90;;;;;;4399147;32;20148;-66
2023/05/19 02:28:47;;;;;;;0.50;0.50;;;10.70;99.90;;;;;;4396742;32;20106;-66
2023/05/19 02:31:15;;;;;;;0.47;0.47;;;10.70;99.90;;;;;;4399889;32;20082;-67
2023/05/19 02:33:41;;;;;;;1.08;1.05;;;10.70;99.90;;;;;;4396257;32;20083;-66
2023/05/19 02:36:07;;;;;;;0.20;0.20;;;10.70;99.90;;;;;;4397995;32;20081;-67
2023/05/19 02:38:33;;;;;;;1.08;0.60;;;10.60;99.90;;;;;;4399522;32;20371;-67
2023/05/19 02:40:58;;;;;;;0.40;0.40;;;10.60;99.90;;;;;;4402875;32;20085;-66
2023/05/19 02:43:24;;;;;;;0.30;0.30;;;10.60;99.90;;;;;;4399304;32;20069;-66
2023/05/19 02:45:49;;;;;;;0.50;0.50;;;10.60;99.90;;;;;;4397498;32;20135;-67
2023/05/19 02:48:15;;;;;;;0.30;0.30;;;10.50;99.90;;;;;;4386396;32;20530;-66
2023/05/19 02:50:41;;;;;;;0.20;0.20;;;10.60;99.90;;;;;;4400671;32;20165;-66
2023/05/19 02:53:07;;;;;;;1.48;0.50;;;10.50;99.90;;;;;;4399133;32;20432;-67
2023/05/19 02:55:32;;;;;;;0.30;0.30;;;10.50;99.90;;;;;;4399569;32;20090;-66
2023/05/19 02:57:58;;;;;;;0.55;0.55;;;10.50;99.90;;;;;;4401012;32;20091;-66
2023/05/19 03:00:23;;;;;;;0.30;0.30;;;10.50;99.90;;;;;;4400596;32;20089;-67
2023/05/19 03:02:51;;;;;;;0.28;0.28;;;10.60;99.90;;;;;;4399831;32;20073;-66
2023/05/19 03:05:17;;;;;;;0.45;0.45;;;10.60;99.90;;;;;;4398944;32;20137;-66
2023/05/19 03:07:42;;;;;;;0.30;0.30;;;10.70;99.90;;;;;;4401819;32;20074;-66
2023/05/19 03:10:08;;;;;;;0.82;0.82;;;10.60;99.90;;;;;;4400567;32;20062;-66
2023/05/19 03:12:33;;;;;;;0.35;0.35;;;10.70;99.90;;;;;;4401659;32;20070;-66
2023/05/19 03:14:59;;;;;;;1.25;0.57;;;10.70;99.90;;;;;;4404716;32;20132;-66
2023/05/19 03:17:25;;;;;;;0.20;0.20;;;10.70;99.90;;;;;;4400109;32;20081;-67
2023/05/19 03:19:50;;;;;;;0.50;0.50;;;10.80;99.90;;;;;;4400666;32;20075;-67
2023/05/19 03:22:17;;;;;;;0.30;0.30;;;10.80;99.90;;;;;;4399209;32;20070;-66
2023/05/19 03:24:43;;;;;;;0.30;0.30;;;10.80;99.90;;;;;;4400781;32;20489;-66
2023/05/19 03:27:08;;;;;;;0.40;0.37;;;10.80;99.90;;;;;;4402268;32;20090;-67
2023/05/19 03:29:34;;;;;;;0.40;0.40;;;10.80;99.90;;;;;;4402860;32;20097;-66
2023/05/19 03:32:00;;;;;;;4.95;0.50;;;10.70;99.90;;;;;;4398727;32;20057;-66
2023/05/19 03:34:25;;;;;;;0.35;0.35;;;10.70;99.90;;;;;;4386371;32;20549;-66
2023/05/19 03:36:51;;;;;;;0.40;0.40;;;10.70;99.90;;;;;;4399812;32;20077;-66
2023/05/19 03:39:16;;;;;;;0.30;0.30;;;10.80;99.90;;;;;;4398657;32;20062;-67
2023/05/19 03:41:42;;;;;;;2.80;0.95;;;10.80;99.90;;;;;;4401152;32;20552;-67
2023/05/19 03:44:07;;;;;;;0.40;0.40;;;10.70;99.90;;;;;;4397876;32;20411;-65
2023/05/19 03:46:33;;;;;;;0.30;0.30;;;10.80;99.90;;;;;;4398578;32;20148;-66
2023/05/19 03:48:58;;;;;;;1.20;0.60;;;10.80;99.90;;;;;;4399246;32;20427;-67
2023/05/19 03:51:24;;;;;;;0.40;0.40;;;10.80;99.90;;;;;;4398622;32;20098;-66
2023/05/19 03:53:50;;;;;;;0.40;0.40;;;10.90;99.90;;;;;;4400119;32;20074;-66
2023/05/19 03:56:17;;;;;;;10.15;0.98;;;10.90;99.90;;;;;;4398242;32;20545;-66
2023/05/19 03:58:43;;;;;;;0.30;0.30;;;10.90;99.90;;;;;;4401436;32;20597;-66
2023/05/19 04:01:09;;;;;;;0.30;0.30;;;10.90;99.90;;;;;;4400868;32;20090;-66
2023/05/19 04:03:34;;;;;;;0.65;0.57;;;10.90;99.90;;;;;;4401449;32;20585;-66
2023/05/19 04:06:00;;;;;;;0.43;0.43;;;10.90;99.90;;;;;;4399334;32;20058;-66
2023/05/19 04:08:25;;;;;;;0.35;0.35;;;10.90;99.90;;;;;;4399256;32;20784;-66
2023/05/19 04:10:51;;;;;;;0.52;0.52;;;11.00;99.90;;;;;;4397369;32;20518;-66
2023/05/19 04:13:16;;;;;;;0.32;0.32;;;11.10;99.90;;;;;;4398398;32;20073;-67
2023/05/19 04:15:42;;;;;;;0.30;0.30;;;11.00;99.90;;;;;;4396754;32;20081;-67
2023/05/19 04:18:07;;;;;;;0.40;0.40;;;11.10;99.90;;;;;;4398783;32;20458;-67
2023/05/19 04:20:33;;;;;;;0.30;0.30;;;11.20;99.90;;;;;;4398439;32;20106;-66
2023/05/19 04:22:58;;;;;;;0.30;0.30;;;11.20;99.90;;;;;;4397299;32;20128;-66
2023/05/19 04:25:24;;;;;;;0.40;0.40;;;11.20;99.90;;;;;;4399464;32;20463;-67
2023/05/19 04:27:49;;;;;;;0.60;0.60;;;11.20;99.90;;;;;;4398855;32;20078;-66
2023/05/19 04:30:20;;;;;;;0.40;0.40;;;11.20;99.90;;;;;;4398973;32;20082;-66
2023/05/19 04:32:48;;;;;;;0.60;0.60;;;11.20;99.90;;;;;;4397382;32;20082;-66
2023/05/19 04:35:16;;;;;;;3.40;0.75;;;11.20;99.90;;;;;;4395163;32;20857;-66
2023/05/19 04:37:44;;;;;;;14.05;3.12;;;11.30;99.90;;;;;;4397700;32;20094;-66
2023/05/19 04:40:11;;;;;;;0.30;0.30;;;11.30;99.90;;;;;;4398631;32;20565;-66
2023/05/19 04:42:40;;;;;;;0.30;0.30;;;11.40;99.90;;;;;;4394929;32;20074;-67
2023/05/19 04:45:07;;;;;;;0.40;0.40;;;11.40;99.90;;;;;;4398172;32;20104;-66
2023/05/19 04:47:35;;;;;;;0.40;0.40;;;11.40;99.90;;;;;;4397055;32;20069;-66
2023/05/19 04:50:02;;;;;;;2.65;1.20;;;11.40;99.90;;;;;;4397509;32;20141;-66
2023/05/19 04:52:28;;;;;;;0.55;0.55;;;11.30;99.90;;;;;;4395309;32;20089;-67
2023/05/19 04:54:53;;;;;;;1.00;0.50;;;11.30;99.90;;;;;;4396319;32;20098;-66
2023/05/19 04:57:19;;;;;;;0.95;0.62;;;11.40;99.90;;;;;;4396211;32;20070;-66
2023/05/19 04:59:45;;;;;;;0.45;0.45;;;11.40;99.90;;;;;;4398051;32;20082;-66
2023/05/19 05:02:10;;;;;;;0.40;0.40;;;11.40;99.90;;;;;;4383429;32;20074;-66
2023/05/19 05:04:39;;;;;;;0.40;0.40;;;11.40;99.90;;;;;;4395360;32;20085;-67
2023/05/19 05:07:04;;;;;;;0.40;0.40;;;11.40;99.90;;;;;;4395905;32;20097;-66
2023/05/19 05:09:30;;;;;;;1.45;0.50;;;11.50;99.90;;;;;;4394556;32;20438;-66
2023/05/19 05:11:56;;;;;;;0.40;0.40;;;11.50;99.90;;;;;;4392808;32;20521;-67
2023/05/19 05:14:22;;;;;;;0.45;0.45;;;11.50;99.90;;;;;;4398857;32;20073;-67
2023/05/19 05:16:48;;;;;;;0.45;0.45;;;11.40;99.90;;;;;;4395439;32;20497;-66
2023/05/19 05:19:14;;;;;;;0.30;0.30;;;11.40;99.90;;;;;;4397799;32;20109;-67
2023/05/19 05:21:40;;;;;;;3.47;1.20;;;11.50;99.90;;;;;;4394750;32;20529;-67
2023/05/19 05:24:06;;;;;;;0.30;0.30;;;11.50;99.90;;;;;;4396521;32;20069;-67
2023/05/19 05:26:34;;;;;;;0.60;0.60;;;11.50;99.90;;;;;;4395350;32;20082;-67
2023/05/19 05:28:59;;;;;;;0.40;0.40;;;11.60;99.90;;;;;;4382714;32;20105;-67
2023/05/19 05:31:25;;;;;;;0.30;0.30;;;11.60;99.90;;;;;;4396925;32;20587;-68
2023/05/19 05:33:51;;;;;;;0.30;0.30;;;11.70;99.90;;;;;;4395307;32;20089;-67
2023/05/19 05:36:16;;;;;;;2.17;1.45;;;11.70;99.90;;;;;;4395251;32;20066;-67
2023/05/19 05:38:42;;;;;;;0.62;0.60;;;11.70;99.90;;;;;;4394977;32;20070;-67
2023/05/19 05:41:07;;;;;;;0.30;0.30;;;11.70;99.90;;;;;;4398485;32;20545;-67
2023/05/19 05:43:33;;;;;;;0.50;0.50;;;11.70;99.90;;;;;;4397340;32;20105;-67
2023/05/19 05:45:58;;;;;;;0.30;0.30;;;11.70;99.90;;;;;;4394077;32;21139;-67
2023/05/19 05:48:24;;;;;;;0.40;0.40;;;11.70;99.90;;;;;;4395843;32;20407;-67
2023/05/19 05:50:51;;;;;;;1.35;0.60;;;11.80;99.90;;;;;;4394961;32;20442;-66
2023/05/19 05:53:18;;;;;;;0.30;0.30;;;11.90;99.90;;;;;;4380816;32;20066;-66
2023/05/19 05:55:45;;;;;;;1.25;0.57;;;11.90;99.90;;;;;;4381696;32;20148;-66
2023/05/19 05:58:10;;;;;;;1.85;0.57;;;11.90;99.90;;;;;;4396108;32;20587;-66
2023/05/19 06:00:37;;;;;;;0.73;0.73;;;11.90;99.90;;;;;;4397069;32;20104;-67
2023/05/19 06:03:03;;;;;;;0.47;0.47;;;11.90;99.90;;;;;;4383516;32;20086;-66
2023/05/19 06:05:29;;;;;;;0.40;0.40;;;11.90;99.90;;;;;;4381379;32;20145;-67
2023/05/19 06:07:54;;;;;;;0.20;0.20;;;12.00;99.90;;;;;;4396250;32;20122;-66
2023/05/19 06:10:20;;;;;;;0.45;0.45;;;12.00;99.90;;;;;;4394512;32;20062;-66
2023/05/19 06:12:46;;;;;;;0.40;0.40;;;12.10;99.90;;;;;;4394662;32;20102;-66
2023/05/19 06:15:11;;;;;;;0.30;0.30;;;12.10;99.90;;;;;;4396823;32;20119;-67
2023/05/19 06:17:36;;;;;;;0.30;0.30;;;12.20;99.90;;;;;;4396607;32;20099;-67
2023/05/19 06:20:04;;;;;;;0.40;0.40;;;12.30;99.90;;;;;;4396144;32;20151;-67
2023/05/19 06:22:30;;;;;;;0.50;0.50;;;12.30;99.90;;;;;;4373967;32;20069;-66
2023/05/19 06:24:55;;;;;;;0.30;0.30;;;12.30;99.90;;;;;;4394552;32;20534;-66
2023/05/19 06:27:21;;;;;;;0.40;0.40;;;12.40;99.90;;;;;;4395825;32;20463;-66
2023/05/19 06:29:46;;;;;;;0.40;0.40;;;12.50;99.90;;;;;;4395250;32;20459;-66
2023/05/19 06:32:12;;;;;;;0.73;0.62;;;12.60;99.90;;;;;;4393839;32;21228;-67
2023/05/19 06:34:39;;;;;;;0.40;0.40;;;12.70;99.90;;;;;;4395087;32;20085;-67
2023/05/19 06:37:04;;;;;;;0.75;0.55;;;12.80;99.90;;;;;;4395007;32;20534;-67
2023/05/19 06:39:30;;;;;;;0.52;0.50;;;12.90;99.90;;;;;;4397765;32;20082;-67
2023/05/19 06:41:56;;;;;;;0.50;0.50;;;13.00;99.90;;;;;;4393863;32;20081;-67
2023/05/19 06:44:21;;;;;;;0.68;0.68;;;13.10;99.90;;;;;;4397246;32;20133;-66
2023/05/19 06:46:47;;;;;;;1.00;0.47;;;13.20;99.90;;;;;;4394413;32;20162;-66
2023/05/19 06:49:12;;;;;;;1.40;0.50;;;13.20;99.90;;;;;;4395561;32;20089;-66
2023/05/19 06:51:38;;;;;;;0.45;0.45;;;13.30;99.90;;;;;;4393085;32;20092;-67
2023/05/19 06:54:03;;;;;;;0.73;0.70;;;13.40;99.90;;;;;;4394942;32;20078;-67
2023/05/19 06:56:29;;;;;;;0.32;0.32;;;13.50;99.90;;;;;;4395182;32;20109;-67
2023/05/19 06:58:54;;;;;;;0.52;0.52;;;13.60;99.90;;;;;;4394491;32;20074;-67
2023/05/19 07:01:20;;;;;;;0.57;0.57;;;13.70;99.90;;;;;;4396587;32;20085;-65
2023/05/19 07:03:45;;;;;;;0.55;0.55;;;13.80;99.90;;;;;;4382478;32;20688;-66
2023/05/19 07:06:11;;;;;;;0.55;0.43;;;13.90;99.90;;;;;;4394360;32;20110;-67
2023/05/19 07:08:37;;;;;;;5.68;1.15;;;13.90;99.90;;;;;;4395889;32;20292;-66
2023/05/19 07:11:02;;;;;;;0.32;0.32;;;14.00;99.90;;;;;;4395770;32;20144;-67
2023/05/19 07:13:28;;;;;;;0.55;0.47;;;14.10;99.90;;;;;;4395630;32;20062;-66
2023/05/19 07:15:54;;;;;;;0.40;0.40;;;14.20;99.90;;;;;;4391609;32;20069;-66
2023/05/19 07:18:20;;;;;;;0.30;0.30;;;14.30;99.90;;;;;;4395187;32;20152;-66
2023/05/19 07:20:46;;;;;;;0.43;0.43;;;14.50;99.90;;;;;;4380107;32;20170;-66
2023/05/19 07:23:11;;;;;;;0.30;0.30;;;14.60;99.90;;;;;;4383210;32;20063;-67
2023/05/19 07:25:37;;;;;;;0.68;0.68;;;14.60;99.90;;;;;;4395584;32;20102;-67
2023/05/19 07:28:03;;;;;;;3.53;1.23;;;14.90;99.90;;;;;;4398316;32;20066;-66
2023/05/19 07:30:28;;;;;;;8.95;0.70;;;15.00;99.90;;;;;;4396586;32;20078;-66
2023/05/19 07:32:54;;;;;;;1.30;0.85;;;15.20;99.90;;;;;;4385289;32;20121;-67
2023/05/19 07:35:21;;;;;;;1.87;0.88;;;15.20;99.90;;;;;;4383328;32;20161;-67
2023/05/19 07:37:48;;;;;;;0.30;0.30;;;15.30;99.90;;;;;;4372465;32;20069;-66
2023/05/19 07:40:13;;;;;;;0.50;0.50;;;15.40;99.90;;;;;;4396293;32;21911;-67
2023/05/19 07:42:40;;;;;;;0.30;0.30;;;15.50;99.90;;;;;;4398341;32;20102;-66
2023/05/19 07:45:06;;;;;;;0.45;0.45;;;15.60;99.90;;;;;;4398588;32;20492;-68
2023/05/19 07:47:31;;;;;;;0.30;0.30;;;15.80;99.90;;;;;;4395925;32;20061;-66
2023/05/19 07:49:57;;;;;;;1.42;0.95;;;15.80;99.90;;;;;;4397682;32;20070;-66
2023/05/19 07:52:22;;;;;;;1.25;0.75;;;15.80;99.90;;;;;;4397268;32;20426;-66
2023/05/19 07:54:48;;;;;;;0.65;0.40;;;15.90;99.90;;;;;;4397427;32;20149;-67
2023/05/19 07:57:13;;;;;;;0.30;0.30;;;16.10;99.90;;;;;;4399236;32;20089;-66
2023/05/19 07:59:39;;;;;;;0.40;0.40;;;16.30;99.90;;;;;;4396645;32;20069;-67
2023/05/19 08:02:05;;;;;;;2.35;0.88;;;16.40;99.90;;;;;;4396990;32;20077;-67
2023/05/19 08:04:31;;;;;;;0.30;0.30;;;16.50;99.90;;;;;;4396328;32;20082;-66
2023/05/19 08:06:56;;;;;;;0.30;0.30;;;16.80;99.70;;;;;;4393431;32;20081;-66
2023/05/19 08:09:22;;;;;;;0.60;0.60;;;16.90;99.90;;;;;;4397037;32;20188;-66
2023/05/19 08:11:48;;;;;;;0.30;0.30;;;17.00;99.80;;;;;;4395835;32;20082;-66
2023/05/19 08:14:14;;;;;;;1.40;0.62;;;17.20;99.70;;;;;;4396996;32;20141;-67
2023/05/19 08:16:41;;;;;;;0.40;0.40;;;17.30;98.90;;;;;;4397658;32;20119;-66
2023/05/19 08:19:07;;;;;;;0.20;0.20;;;17.30;98.80;;;;;;4398325;32;20552;-67
2023/05/19 08:21:33;;;;;;;1.02;0.60;;;17.30;98.80;;;;;;4396454;32;20082;-67
2023/05/19 08:24:00;;;;;;;2.72;1.40;;;17.30;98.40;;;;;;4397295;32;20153;-67
2023/05/19 08:26:26;;;;;;;0.50;0.50;;;17.30;99.00;;;;;;4395667;32;20090;-66
2023/05/19 08:28:51;;;;;;;0.30;0.30;;;17.20;98.80;;;;;;4397415;32;20062;-66
2023/05/19 08:31:17;;;;;;;1.55;0.60;;;17.20;98.70;;;;;;4396740;32;20078;-66
2023/05/19 08:33:43;;;;;;;0.30;0.30;;;17.30;98.40;;;;;;4397950;32;20191;-67
2023/05/19 08:36:09;;;;;;;0.30;0.30;;;17.30;98.30;;;;;;4382076;32;20097;-66
2023/05/19 08:38:35;;;;;;;0.40;0.40;;;17.40;98.80;;;;;;4397991;32;20101;-67
2023/05/19 08:41:01;;;;;;;0.32;0.32;;;17.50;99.30;;;;;;4398818;32;20503;-67
2023/05/19 08:43:26;;;;;;;0.70;0.52;;;17.50;98.10;;;;;;4395412;32;20131;-66
2023/05/19 08:45:52;;;;;;;0.30;0.30;;;17.50;97.90;;;;;;4395272;32;20133;-66
2023/05/19 08:48:19;;;;;;;0.30;0.30;;;17.50;97.80;;;;;;4396655;32;20065;-66
2023/05/19 08:51:12;;;;;;;0.30;0.30;;;17.50;98.10;;;;;;4395334;32;20107;-67
2023/05/19 08:53:42;;;;;;;2.95;0.85;;;17.60;99.40;;;;;;4383059;32;20210;-66
2023/05/19 08:56:15;;;;;;;0.57;0.52;;;17.50;97.60;;;;;;4383009;32;20320;-66
2023/05/19 08:58:42;;;;;;;0.50;0.50;;;17.30;97.60;;;;;;4397444;32;20090;-66
2023/05/19 09:01:12;;;;;;;2.95;0.50;;;17.30;97.90;;;;;;4397129;32;20085;-67
2023/05/19 09:03:39;;;;;;;0.50;0.50;;;17.20;98.20;;;;;;4397698;32;21229;-66
2023/05/19 09:06:07;;;;;;;0.30;0.30;;;17.40;97.90;;;;;;4383559;32;20463;-67
2023/05/19 09:08:33;;;;;;;0.30;0.30;;;17.60;98.10;;;;;;4397577;32;20557;-66
2023/05/19 09:10:59;;;;;;;0.25;0.25;;;17.60;97.90;;;;;;4396346;32;20101;-66
2023/05/19 09:13:25;;;;;;;0.30;0.30;;;17.60;97.80;;;;;;4396744;32;20459;-66
2023/05/19 09:15:52;;;;;;;0.40;0.40;;;17.70;97.90;;;;;;4394994;32;20090;-67
2023/05/19 09:18:17;;;;;;;0.20;0.20;;;17.70;98.30;;;;;;4371325;32;20556;-66
2023/05/19 09:20:44;;;;;;;0.32;0.32;;;18.00;97.60;;;;;;4392971;32;20141;-66
2023/05/19 09:23:12;;;;;;;0.30;0.30;;;18.10;96.70;;;;;;4395873;32;20078;-66
2023/05/19 09:25:48;;;;;;;0.40;0.40;;;17.80;94.60;;;;;;4371960;32;20069;-67
2023/05/19 09:28:13;;;;;;;0.43;0.32;;;17.60;96.00;;;;;;4396751;32;20579;-66
2023/05/19 09:30:39;;;;;;;0.30;0.30;;;17.80;95.40;;;;;;4396813;32;20077;-66
2023/05/19 09:33:08;;;;;;;0.20;0.20;;;18.10;95.30;;;;;;4395200;32;20577;-67
2023/05/19 09:35:35;;;;;;;0.20;0.20;;;18.60;95.60;;;;;;4397389;32;20094;-66
2023/05/19 09:38:00;;;;;;;0.45;0.45;;;18.60;94.90;;;;;;4394513;32;20086;-66
2023/05/19 09:40:27;;;;;;;0.30;0.30;;;18.70;94.70;;;;;;4395668;32;20098;-67
2023/05/19 09:42:53;;;;;;;0.20;0.20;;;18.80;93.70;;;;;;4370874;32;20074;-67
2023/05/19 09:45:19;;;;;;;0.25;0.25;;;19.00;93.50;;;;;;4395063;32;20081;-67
2023/05/19 09:47:44;;;;;;;0.20;0.20;;;19.20;93.00;;;;;;4398117;32;20093;-67
2023/05/19 09:50:12;;;;;;;1.08;0.50;;;19.30;92.60;;;;;;4394996;32;20158;-66
2023/05/19 09:52:42;;;;;;;0.30;0.30;;;19.40;91.60;;;;;;4378528;32;20116;-67
2023/05/19 09:55:11;;;;;;;1.75;0.30;;;19.50;92.00;;;;;;4398706;32;20086;-67
2023/05/19 09:57:37;;;;;;;0.28;0.28;;;19.60;91.70;;;;;;4381962;32;20091;-66
2023/05/19 10:00:10;;;;;;;0.22;0.22;;;19.70;91.80;;;;;;4381297;32;20478;-68
2023/05/19 10:02:40;;;;;;;0.40;0.40;;;19.70;91.10;;;;;;4396217;32;20089;-66
2023/05/19 10:05:06;;;;;;;5.57;0.43;;;19.40;91.50;;;;;;4397886;32;20085;-65
2023/05/19 10:07:32;;;;;;;0.75;0.60;;;19.20;92.80;;;;;;4380080;32;20061;-65
2023/05/19 10:09:59;;;;;;;0.30;0.30;;;19.20;91.90;;;;;;4395921;32;20066;-67
2023/05/19 10:12:25;;;;;;;0.30;0.30;;;19.10;91.70;;;;;;4395696;32;20094;-65
2023/05/19 10:14:53;;;;;;;0.30;0.30;;;19.10;91.80;;;;;;4394979;32;20073;-67
2023/05/19 10:17:19;;;;;;;0.25;0.25;;;19.00;91.60;;;;;;4394174;32;20087;-66
2023/05/19 10:19:49;;;;;;;0.20;0.20;;;18.80;91.90;;;;;;4395236;32;20093;-65
2023/05/19 10:22:14;;;;;;;0.30;0.30;;;19.20;92.10;;;;;;4395474;32;20144;-66
2023/05/19 10:24:40;;;;;;;0.30;0.30;;;19.60;93.10;;;;;;4395795;32;20086;-67
2023/05/19 10:27:10;;;;;;;0.30;0.30;;;19.90;92.80;;;;;;4393978;32;20098;-66
2023/05/19 10:29:41;;;;;;;0.30;0.30;;;20.00;91.40;;;;;;4394898;32;20532;-66
2023/05/19 10:32:12;;;;;;;0.60;0.60;;;19.70;91.70;;;;;;4380422;32;20123;-66
2023/05/19 10:35:09;;;;;;;0.32;0.32;;;19.50;91.20;;;;;;4398080;32;20399;-66
2023/05/19 10:37:50;;;;;;;0.50;0.37;;;19.40;92.50;;;;;;4382914;32;20490;-66
2023/05/19 10:40:25;;;;;;;0.20;0.20;;;19.30;92.80;;;;;;4395639;32;20541;-67
2023/05/19 10:43:03;;;;;;;0.47;0.47;;;19.10;92.20;;;;;;4396379;32;20545;-65
2023/05/19 10:45:35;;;;;;;0.30;0.30;;;19.10;92.80;;;;;;4381397;32;20082;-65
2023/05/19 10:48:00;;;;;;;0.75;0.40;;;19.30;91.50;;;;;;4379203;32;20077;-66
2023/05/19 10:50:26;;;;;;;0.35;0.35;;;19.30;91.00;;;;;;4396076;32;20074;-66
2023/05/19 10:52:54;;;;;;;0.30;0.30;;;19.10;91.30;;;;;;4395196;32;20085;-66
2023/05/19 10:55:43;;;;;;;0.20;0.20;;;19.00;91.90;;;;;;4395395;32;20075;-66
2023/05/19 10:58:10;;;;;;;0.20;0.20;;;18.80;91.70;;;;;;4378360;32;20567;-65
2023/05/19 11:00:38;;;;;;;3.47;0.85;;;18.80;91.90;;;;;;4399457;32;20137;-66
2023/05/19 11:03:14;;;;;;;0.40;0.40;;;19.00;91.80;;;;;;4398280;32;21225;-67
2023/05/19 11:05:40;;;;;;;0.30;0.30;;;19.20;90.90;;;;;;4376792;32;20141;-66
2023/05/19 11:08:07;;;;;;;0.37;0.37;;;19.20;91.10;;;;;;4396461;32;20084;-67
2023/05/19 11:10:33;;;;;;;0.40;0.40;;;19.60;90.70;;;;;;4397772;32;20102;-67
2023/05/19 11:12:59;;;;;;;0.45;0.40;;;20.00;90.70;;;;;;4395765;32;20517;-66
2023/05/19 11:15:26;;;;;;;0.85;0.60;;;20.20;90.10;;;;;;4384310;32;20133;-66
2023/05/19 11:17:52;;;;;;;0.20;0.20;;;20.00;90.00;;;;;;4378918;32;20062;-67
2023/05/19 11:20:27;;;;;;;0.30;0.30;;;19.90;90.70;;;;;;4398386;32;20082;-66
2023/05/19 11:23:13;;;;;;;0.30;0.30;;;19.70;90.60;;;;;;4398941;32;20086;-67
2023/05/19 11:25:43;;;;;;;0.30;0.30;;;19.60;90.50;;;;;;4398798;32;20386;-67
2023/05/19 11:28:12;;;;;;;0.30;0.30;;;19.50;90.20;;;;;;4398963;32;20136;-66
2023/05/19 11:30:38;;;;;;;0.90;0.85;;;19.30;90.40;;;;;;4385310;32;20129;-65
2023/05/19 11:33:05;;;;;;;1.65;0.85;;;19.30;90.50;;;;;;4398215;32;20082;-66
2023/05/19 11:35:32;;;;;;;0.70;0.50;;;19.40;91.30;;;;;;4401169;32;20149;-66
2023/05/19 11:37:58;;;;;;;0.52;0.52;;;19.50;90.80;;;;;;4384746;32;20105;-67
2023/05/19 11:40:25;;;;;;;0.30;0.30;;;19.50;90.70;;;;;;4385940;32;20494;-66
2023/05/19 11:42:51;;;;;;;0.30;0.30;;;19.50;89.90;;;;;;4399960;32;20085;-66
2023/05/19 11:45:16;;;;;;;0.30;0.30;;;19.50;90.80;;;;;;4393978;32;92277;-66
2023/05/19 11:47:45;;;;;;;0.22;0.22;;;19.50;90.10;;;;;;4401670;32;20238;-66
2023/05/19 11:50:11;;;;;;;0.57;0.40;;;19.60;90.00;;;;;;4396948;32;20073;-65
2023/05/19 11:52:37;;;;;;;0.30;0.30;;;19.50;89.40;;;;;;4395009;32;20082;-66
2023/05/19 11:55:02;;;;;;;0.30;0.30;;;19.40;89.40;;;;;;4397646;32;20522;-66
2023/05/19 11:57:28;;;;;;;0.30;0.30;;;19.40;90.60;;;;;;4393551;32;20133;-67
2023/05/19 11:59:55;;;;;;;0.30;0.30;;;19.70;90.00;;;;;;4397576;32;20656;-67
2023/05/19 12:02:23;;;;;;;0.40;0.40;;;19.70;89.60;;;;;;4382138;32;20466;-67
2023/05/19 12:04:49;;;;;;;0.20;0.20;;;19.80;89.50;;;;;;4394581;32;21333;-67
2023/05/19 12:07:17;;;;;;;0.30;0.30;;;19.70;89.90;;;;;;4379788;32;20542;-66
2023/05/19 12:09:44;;;;;;;0.28;0.28;;;19.70;90.30;;;;;;4381455;32;20579;-66
2023/05/19 12:12:12;;;;;;;3.47;0.90;;;19.50;90.00;;;;;;4380824;32;20491;-67
2023/05/19 12:14:39;;;;;;;2.75;0.65;;;19.40;89.40;;;;;;4395164;32;20645;-66
2023/05/19 12:17:20;;;;;;;0.30;0.30;;;19.40;90.10;;;;;;4397109;32;20066;-66
2023/05/19 12:19:47;;;;;;;0.30;0.30;;;20.00;90.00;;;;;;4396974;32;20248;-65
2023/05/19 12:22:15;;;;;;;0.20;0.20;;;20.80;89.20;;;;;;4382456;32;20132;-65
2023/05/19 12:24:42;;;;;;;0.37;0.37;;;21.70;88.60;;;;;;4395149;32;20085;-68
2023/05/19 12:27:23;;;;;;;0.40;0.40;;;22.20;87.10;;;;;;4395097;32;20129;-66
2023/05/19 12:29:53;;;;;;;0.30;0.30;;;22.00;83.50;;;;;;4394205;32;20080;-67
2023/05/19 12:32:24;;;;;;;0.20;0.20;;;21.60;83.80;;;;;;4382860;32;21289;-67
2023/05/19 12:34:50;;;;;;;0.30;0.30;;;21.00;86.40;;;;;;4387084;32;20110;-66
2023/05/19 12:37:15;;;;;;;0.95;0.57;;;21.10;85.40;;;;;;4395269;32;20093;-68
2023/05/19 12:39:41;;;;;;;8.77;1.00;;;21.30;85.20;;;;;;4396825;32;20431;-66
2023/05/19 12:42:08;;;;;;;0.30;0.30;;;21.10;85.30;;;;;;4380683;32;20174;-66
2023/05/19 12:44:41;;;;;;;0.28;0.28;;;20.60;86.80;;;;;;4379705;32;20860;-67
2023/05/19 12:47:07;;;;;;;0.20;0.20;;;20.40;86.90;;;;;;4367891;32;20116;-66